createdAt,value
2018-05-26T00:01:09.093Z,79.10
2018-05-26T00:03:37.325Z,79.10
2018-05-26T00:06:05.571Z,79.30
2018-05-26T00:08:33.816Z,79.60
2018-05-26T00:11:02.825Z,79.60
2018-05-26T00:13:31.066Z,79.60
2018-05-26T00:15:59.298Z,79.60
2018-05-26T00:18:27.550Z,79.60
2018-05-26T00:20:55.790Z,79.30
2018-05-26T00:23:24.047Z,79.50
2018-05-26T00:25:52.286Z,79.60
2018-05-26T00:28:20.518Z,79.10
2018-05-26T00:30:48.762Z,79.40
2018-05-26T00:33:17.007Z,79.50
2018-05-26T00:35:45.289Z,79.60
2018-05-26T00:38:13.518Z,79.90
2018-05-26T00:40:41.754Z,79.70
2018-05-26T00:43:10.006Z,79.70
2018-05-26T00:45:38.258Z,79.90
2018-05-26T00:48:07.253Z,79.90
2018-05-26T00:50:36.272Z,80.00
2018-05-26T00:53:04.817Z,80.00
2018-05-26T00:55:33.045Z,80.00
2018-05-26T00:58:01.298Z,80.00
2018-05-26T01:00:29.530Z,80.00
2018-05-26T01:02:58.551Z,80.10
2018-05-26T01:05:27.550Z,80.30
2018-05-26T01:07:56.642Z,80.40
2018-05-26T01:10:25.660Z,80.30
2018-05-26T01:12:53.902Z,80.30
2018-05-26T01:15:22.893Z,80.40
2018-05-26T01:17:52.301Z,80.50
2018-05-26T01:20:22.207Z,80.40
2018-05-26T01:22:51.223Z,80.30
2018-05-26T01:25:19.462Z,80.20
2018-05-26T01:27:47.691Z,80.40
2018-05-26T01:30:15.943Z,80.40
2018-05-26T01:32:44.958Z,80.60
2018-05-26T01:35:13.190Z,80.40
2018-05-26T01:37:42.190Z,81.00
2018-05-26T01:40:11.207Z,80.70
2018-05-26T01:42:39.438Z,80.70
2018-05-26T01:45:07.678Z,80.90
2018-05-26T01:47:35.918Z,80.90
2018-05-26T01:50:04.936Z,81.20
2018-05-26T01:52:33.174Z,81.20
2018-05-26T01:55:02.173Z,81.20
2018-05-26T01:57:31.185Z,81.20
2018-05-26T01:59:59.435Z,81.20
2018-05-26T02:02:28.462Z,81.40
2018-05-26T02:04:56.921Z,81.30
2018-05-26T02:07:25.922Z,81.30
2018-05-26T02:09:54.922Z,81.40
2018-05-26T02:12:23.394Z,81.40
2018-05-26T02:14:52.412Z,81.60
2018-05-26T02:17:20.643Z,81.60
2018-05-26T02:19:48.890Z,81.70
2018-05-26T02:22:17.139Z,82.20
2018-05-26T02:24:45.479Z,82.30
2018-05-26T02:27:14.477Z,82.60
2018-05-26T02:29:43.482Z,82.70
2018-05-26T02:32:11.758Z,82.70
2018-05-26T02:34:40.024Z,82.60
2018-05-26T02:37:09.026Z,83.10
2018-05-26T02:39:37.270Z,83.10
2018-05-26T02:42:05.526Z,83.20
2018-05-26T02:44:33.768Z,84.20
2018-05-26T02:47:02.030Z,83.20
2018-05-26T02:49:30.275Z,83.00
2018-05-26T02:51:58.528Z,83.00
2018-05-26T02:54:26.762Z,83.10
2018-05-26T02:56:55.325Z,83.00
2018-05-26T02:59:24.345Z,82.80
2018-05-26T03:01:52.586Z,82.80
2018-05-26T03:04:26.271Z,82.90
2018-05-26T03:07:00.133Z,83.40
2018-05-26T03:09:33.800Z,83.10
2018-05-26T03:12:08.436Z,83.90
2018-05-26T03:14:43.029Z,83.50
2018-05-26T03:17:11.295Z,83.40
2018-05-26T03:19:39.541Z,83.50
2018-05-26T03:22:08.204Z,83.60
2018-05-26T03:24:37.205Z,83.50
2018-05-26T03:27:05.444Z,83.50
2018-05-26T03:29:33.693Z,83.30
2018-05-26T03:32:01.942Z,83.00
2018-05-26T03:34:30.198Z,82.40
2018-05-26T03:36:58.442Z,82.40
2018-05-26T03:39:26.677Z,82.50
2018-05-26T03:41:54.922Z,82.60
2018-05-26T03:44:23.926Z,82.50
2018-05-26T03:46:52.179Z,82.50
2018-05-26T03:49:21.186Z,82.50
2018-05-26T03:51:49.430Z,82.50
2018-05-26T03:54:17.688Z,82.40
2018-05-26T03:57:03.755Z,83.10
2018-05-26T03:59:49.855Z,83.60
2018-05-26T04:02:18.297Z,83.50
2018-05-26T04:04:47.311Z,83.70
2018-05-26T04:07:15.556Z,83.70
2018-05-26T04:09:43.957Z,84.00
2018-05-26T04:12:12.207Z,84.00
2018-05-26T04:14:40.442Z,83.90
2018-05-26T04:17:08.698Z,83.90
2018-05-26T04:19:36.946Z,83.80
2018-05-26T04:22:06.062Z,83.90
2018-05-26T04:24:34.314Z,83.80
2018-05-26T04:27:03.344Z,83.90
2018-05-26T04:29:31.596Z,83.90
2018-05-26T04:32:00.588Z,83.50
2018-05-26T04:34:29.606Z,83.00
2018-05-26T04:36:57.859Z,83.00
2018-05-26T04:39:26.879Z,83.20
2018-05-26T04:41:55.130Z,83.20
2018-05-26T04:44:23.427Z,82.80
2018-05-26T04:46:51.662Z,82.90
2018-05-26T04:49:20.698Z,83.40
2018-05-26T04:51:48.937Z,83.30
2018-05-26T04:54:17.947Z,83.50
2018-05-26T04:56:46.191Z,83.40
2018-05-26T04:59:14.433Z,83.60
2018-05-26T05:01:42.686Z,83.40
2018-05-26T05:04:10.933Z,83.40
2018-05-26T05:06:39.942Z,83.50
2018-05-26T05:09:08.200Z,83.50
2018-05-26T05:11:37.231Z,83.90
2018-05-26T05:14:05.478Z,83.90
2018-05-26T05:16:34.787Z,83.80
2018-05-26T05:19:03.026Z,83.70
2018-05-26T05:21:32.046Z,83.70
2018-05-26T05:24:01.254Z,83.70
2018-05-26T05:26:29.498Z,83.60
2018-05-26T05:28:57.733Z,83.00
2018-05-26T05:31:25.994Z,82.60
2018-05-26T05:33:54.454Z,82.70
2018-05-26T05:36:22.704Z,83.10
2018-05-26T05:38:50.937Z,83.00
2018-05-26T05:41:19.195Z,82.90
2018-05-26T05:43:47.451Z,83.10
2018-05-26T05:46:16.463Z,82.50
2018-05-26T05:48:44.722Z,82.50
2018-05-26T05:51:13.743Z,82.50
2018-05-26T05:53:41.982Z,82.50
2018-05-26T05:56:11.020Z,82.70
2018-05-26T05:58:39.246Z,82.70
2018-05-26T06:01:07.479Z,82.20
2018-05-26T06:03:36.005Z,81.10
2018-05-26T06:06:04.233Z,81.10
2018-05-26T06:08:32.470Z,81.00
2018-05-26T06:11:01.046Z,81.00
2018-05-26T06:13:30.055Z,80.70
2018-05-26T06:15:58.297Z,80.60
2018-05-26T06:18:26.544Z,81.40
2018-05-26T06:20:54.790Z,81.50
2018-05-26T06:23:23.059Z,81.20
2018-05-26T06:25:51.302Z,81.50
2018-05-26T06:28:19.553Z,81.50
2018-05-26T06:30:47.801Z,81.40
2018-05-26T06:33:16.039Z,81.40
2018-05-26T06:35:45.045Z,81.80
2018-05-26T06:38:13.304Z,81.70
2018-05-26T06:40:41.598Z,81.70
2018-05-26T06:43:10.619Z,81.00
2018-05-26T06:45:39.869Z,81.00
2018-05-26T06:48:08.113Z,80.90
2018-05-26T06:50:36.358Z,80.80
2018-05-26T06:53:05.150Z,81.30
2018-05-26T06:55:33.398Z,81.50
2018-05-26T06:58:02.423Z,82.70
2018-05-26T07:00:30.679Z,82.60
2018-05-26T07:02:58.921Z,82.70
2018-05-26T07:05:27.334Z,81.70
2018-05-26T07:07:55.573Z,81.60
2018-05-26T07:10:23.809Z,81.60
2018-05-26T07:12:52.071Z,81.10
2018-05-26T07:15:20.326Z,81.50
2018-05-26T07:17:49.634Z,81.50
2018-05-26T07:20:17.877Z,81.50
2018-05-26T07:22:46.117Z,81.10
2018-05-26T07:25:14.372Z,81.20
2018-05-26T07:27:42.619Z,80.80
2018-05-26T07:30:11.632Z,80.20
2018-05-26T07:32:40.114Z,79.60
2018-05-26T07:35:08.425Z,80.60
2018-05-26T07:37:36.766Z,79.90
2018-05-26T07:40:05.025Z,80.00
2018-05-26T07:42:34.052Z,79.70
2018-05-26T07:45:02.346Z,79.70
2018-05-26T07:47:30.682Z,80.10
2018-05-26T07:49:59.705Z,79.80
2018-05-26T07:52:27.956Z,79.70
2018-05-26T07:54:56.974Z,79.50
2018-05-26T07:57:25.226Z,79.50
2018-05-26T07:59:53.475Z,78.90
2018-05-26T08:02:21.729Z,79.00
2018-05-26T08:04:49.987Z,79.30
2018-05-26T08:07:18.252Z,78.60
2018-05-26T08:09:46.495Z,79.00
2018-05-26T08:12:15.515Z,79.20
2018-05-26T08:14:43.773Z,79.10
2018-05-26T08:17:12.089Z,78.50
2018-05-26T08:19:40.278Z,77.70
2018-05-26T08:22:08.906Z,77.50
2018-05-26T08:24:37.926Z,77.80
2018-05-26T08:27:06.171Z,77.70
2018-05-26T08:29:35.194Z,75.50
2018-05-26T08:32:03.441Z,75.50
2018-05-26T08:34:32.441Z,76.40
2018-05-26T08:37:01.479Z,76.80
2018-05-26T08:39:29.717Z,76.80
2018-05-26T08:41:57.970Z,76.40
2018-05-26T08:44:26.226Z,76.20
2018-05-26T08:46:54.465Z,76.80
2018-05-26T08:49:22.710Z,77.00
2018-05-26T08:51:51.197Z,75.60
2018-05-26T08:54:19.439Z,74.80
2018-05-26T08:56:47.678Z,73.30
2018-05-26T08:59:15.931Z,74.10
2018-05-26T09:01:44.170Z,73.00
2018-05-26T09:04:12.422Z,75.10
2018-05-26T09:06:40.654Z,73.30
2018-05-26T09:09:08.910Z,75.20
2018-05-26T09:11:37.918Z,74.20
2018-05-26T09:14:06.165Z,74.20
2018-05-26T09:16:34.419Z,71.20
2018-05-26T09:19:02.674Z,73.30
2018-05-26T09:21:30.918Z,70.90
2018-05-26T09:23:59.174Z,74.20
2018-05-26T09:26:28.185Z,71.90
2018-05-26T09:28:57.214Z,69.90
2018-05-26T09:31:25.511Z,69.80
2018-05-26T09:33:53.707Z,70.40
2018-05-26T09:36:21.942Z,72.40
2018-05-26T09:38:50.207Z,70.80
2018-05-26T09:41:18.450Z,69.50
2018-05-26T09:43:47.455Z,68.00
2018-05-26T09:46:15.711Z,67.80
2018-05-26T09:48:44.730Z,68.30
2018-05-26T09:51:12.974Z,68.30
2018-05-26T09:53:41.227Z,68.70
2018-05-26T09:56:09.468Z,68.50
2018-05-26T09:58:37.923Z,67.10
2018-05-26T10:01:06.938Z,66.00
2018-05-26T10:03:35.174Z,65.90
2018-05-26T10:06:03.424Z,68.80
2018-05-26T10:08:31.654Z,67.10
2018-05-26T10:10:59.907Z,65.60
2018-05-26T10:13:28.952Z,68.30
2018-05-26T10:15:57.914Z,67.80
2018-05-26T10:18:26.167Z,67.70
2018-05-26T10:20:55.282Z,66.30
2018-05-26T10:23:23.539Z,66.10
2018-05-26T10:25:52.566Z,66.90
2018-05-26T10:28:20.806Z,66.80
2018-05-26T10:30:49.817Z,64.90
2018-05-26T10:33:18.073Z,64.10
2018-05-26T10:35:46.338Z,65.70
2018-05-26T10:38:14.642Z,66.00
2018-05-26T10:40:42.822Z,64.00
2018-05-26T10:43:11.302Z,66.10
2018-05-26T10:45:40.415Z,65.60
2018-05-26T10:48:08.656Z,63.10
2018-05-26T10:50:36.903Z,64.20
2018-05-26T10:53:05.959Z,64.10
2018-05-26T10:55:34.203Z,62.30
2018-05-26T10:58:03.230Z,63.60
2018-05-26T11:00:31.474Z,63.60
2018-05-26T11:03:00.483Z,62.30
2018-05-26T11:05:28.733Z,62.30
2018-05-26T11:07:57.772Z,62.50
2018-05-26T11:10:26.023Z,62.40
2018-05-26T11:12:54.259Z,61.90
2018-05-26T11:15:23.257Z,60.00
2018-05-26T11:17:51.821Z,60.40
2018-05-26T11:20:20.066Z,58.60
2018-05-26T11:22:48.253Z,59.20
2018-05-26T11:25:16.706Z,60.00
2018-05-26T11:27:45.710Z,60.00
2018-05-26T11:30:13.956Z,60.00
2018-05-26T11:32:43.270Z,59.60
2018-05-26T11:35:12.270Z,60.90
2018-05-26T11:37:40.517Z,60.90
2018-05-26T11:40:08.764Z,62.10
2018-05-26T11:42:37.011Z,60.60
2018-05-26T11:45:05.253Z,58.90
2018-05-26T11:47:34.363Z,59.00
2018-05-26T11:50:03.366Z,60.70
2018-05-26T11:52:31.609Z,60.70
2018-05-26T11:54:59.863Z,60.00
2018-05-26T11:57:28.115Z,60.60
2018-05-26T11:59:56.358Z,59.80
2018-05-26T12:02:24.607Z,60.40
2018-05-26T12:04:52.937Z,60.80
2018-05-26T12:07:21.170Z,60.70
2018-05-26T12:09:50.183Z,60.90
2018-05-26T12:12:18.435Z,60.80
2018-05-26T12:14:46.677Z,60.70
2018-05-26T12:17:14.921Z,62.40
2018-05-26T12:19:43.206Z,63.10
2018-05-26T12:22:11.446Z,60.80
2018-05-26T12:24:40.455Z,58.10
2018-05-26T12:27:08.689Z,58.00
2018-05-26T12:29:36.950Z,57.50
2018-05-26T12:32:05.177Z,56.70
2018-05-26T12:34:33.417Z,57.30
2018-05-26T12:37:01.664Z,56.20
2018-05-26T12:39:29.907Z,55.80
2018-05-26T12:41:58.158Z,54.50
2018-05-26T12:44:27.166Z,53.40
2018-05-26T12:46:56.195Z,54.50
2018-05-26T12:49:24.430Z,54.40
2018-05-26T12:51:53.439Z,55.20
2018-05-26T12:54:21.918Z,55.10
2018-05-26T12:56:50.161Z,56.50
2018-05-26T12:59:18.397Z,54.70
2018-05-26T13:01:46.650Z,55.40
2018-05-26T13:04:14.895Z,56.30
2018-05-26T13:06:43.125Z,56.40
2018-05-26T13:09:11.378Z,56.50
2018-05-26T13:11:39.851Z,56.20
2018-05-26T13:14:08.101Z,55.80
2018-05-26T13:16:36.338Z,56.30
2018-05-26T13:19:04.593Z,56.50
2018-05-26T13:21:32.827Z,56.30
2018-05-26T13:24:01.071Z,54.60
2018-05-26T13:26:29.317Z,55.90
2018-05-26T13:28:57.594Z,55.00
2018-05-26T13:31:25.821Z,55.30
2018-05-26T13:33:55.585Z,55.80
2018-05-26T13:36:23.827Z,55.80
2018-05-26T13:38:52.838Z,54.70
2018-05-26T13:41:21.077Z,54.70
2018-05-26T13:43:49.326Z,53.20
2018-05-26T13:46:17.562Z,52.20
2018-05-26T13:48:45.810Z,51.00
2018-05-26T13:51:14.068Z,52.00
2018-05-26T13:53:42.295Z,50.60
2018-05-26T13:56:10.531Z,49.20
2018-05-26T13:58:38.794Z,49.80
2018-05-26T14:01:07.036Z,52.40
2018-05-26T14:03:35.281Z,52.70
2018-05-26T14:06:03.526Z,51.60
2018-05-26T14:08:31.773Z,50.10
2018-05-26T14:11:00.061Z,49.60
2018-05-26T14:13:29.414Z,50.50
2018-05-26T14:15:57.672Z,50.40
2018-05-26T14:18:26.682Z,49.90
2018-05-26T14:20:54.931Z,49.80
2018-05-26T14:23:23.434Z,51.70
2018-05-26T14:25:52.447Z,50.00
2018-05-26T14:28:20.691Z,49.90
2018-05-26T14:30:49.703Z,46.90
2018-05-26T14:33:19.003Z,48.30
2018-05-26T14:35:47.242Z,48.20
2018-05-26T14:38:15.483Z,48.00
2018-05-26T14:40:43.726Z,47.00
2018-05-26T14:43:12.135Z,47.20
2018-05-26T14:45:40.375Z,46.40
2018-05-26T14:48:09.388Z,48.40
2018-05-26T14:50:37.638Z,48.40
2018-05-26T14:53:07.346Z,47.00
2018-05-26T14:55:36.355Z,46.90
2018-05-26T14:58:04.839Z,46.80
2018-05-26T15:00:33.074Z,47.30
2018-05-26T15:03:01.317Z,49.50
2018-05-26T15:05:29.571Z,50.00
2018-05-26T15:07:57.829Z,49.20
2018-05-26T15:10:26.873Z,49.70
2018-05-26T15:12:55.492Z,49.70
2018-05-26T15:15:24.414Z,51.50
2018-05-26T15:17:52.663Z,51.40
2018-05-26T15:20:20.912Z,50.60
2018-05-26T15:22:49.161Z,47.60
2018-05-26T15:25:17.385Z,47.20
2018-05-26T15:27:45.623Z,49.40
2018-05-26T15:30:13.864Z,50.30
2018-05-26T15:32:42.115Z,50.40
2018-05-26T15:35:11.135Z,48.00
2018-05-26T15:37:39.424Z,48.00
2018-05-26T15:40:08.396Z,49.60
2018-05-26T15:42:36.634Z,49.60
2018-05-26T15:45:04.878Z,50.60
2018-05-26T15:47:33.118Z,51.80
2018-05-26T15:50:02.139Z,51.40
2018-05-26T15:52:30.383Z,51.40
2018-05-26T15:54:59.387Z,51.20
2018-05-26T15:57:28.402Z,52.50
2018-05-26T15:59:56.664Z,52.50
2018-05-26T16:02:25.647Z,52.10
2018-05-26T16:04:53.902Z,52.10
2018-05-26T16:07:22.913Z,52.80
2018-05-26T16:09:51.913Z,52.70
2018-05-26T16:12:20.162Z,52.60
2018-05-26T16:14:48.406Z,53.20
2018-05-26T16:17:16.653Z,52.90
2018-05-26T16:19:45.242Z,53.50
2018-05-26T16:22:13.476Z,53.60
2018-05-26T16:24:41.702Z,53.50
2018-05-26T16:27:09.942Z,54.30
2018-05-26T16:29:38.960Z,54.70
2018-05-26T16:32:07.206Z,54.70
2018-05-26T16:34:36.207Z,55.10
2018-05-26T16:37:05.201Z,55.90
2018-05-26T16:39:33.459Z,55.80
2018-05-26T16:42:02.462Z,54.70
2018-05-26T16:44:31.479Z,54.70
2018-05-26T16:46:59.725Z,54.70
2018-05-26T16:49:28.737Z,52.90
2018-05-26T16:51:57.003Z,52.90
2018-05-26T16:54:25.243Z,53.80
2018-05-26T16:56:53.494Z,55.10
2018-05-26T16:59:21.738Z,55.30
2018-05-26T17:01:49.981Z,54.00
2018-05-26T17:04:18.232Z,53.60
2018-05-26T17:06:46.458Z,53.30
2018-05-26T17:09:14.938Z,53.70
2018-05-26T17:11:43.946Z,54.20
2018-05-26T17:14:12.185Z,54.20
2018-05-26T17:16:41.510Z,54.10
2018-05-26T17:19:10.609Z,54.10
2018-05-26T17:21:38.839Z,54.10
2018-05-26T17:24:07.086Z,54.20
2018-05-26T17:26:35.330Z,54.60
2018-05-26T17:29:04.329Z,55.60
2018-05-26T17:31:32.578Z,55.50
2018-05-26T17:34:01.602Z,56.40
2018-05-26T17:36:29.888Z,55.70
2018-05-26T17:38:58.086Z,56.10
2018-05-26T17:41:26.336Z,56.60
2018-05-26T17:43:54.618Z,57.10
2018-05-26T17:46:22.846Z,57.30
2018-05-26T17:48:51.086Z,58.10
2018-05-26T17:51:19.334Z,58.20
2018-05-26T17:53:47.598Z,58.20
2018-05-26T17:56:16.643Z,58.70
2018-05-26T17:58:44.853Z,58.70
2018-05-26T18:01:13.877Z,59.60
2018-05-26T18:03:42.129Z,60.20
2018-05-26T18:06:11.147Z,60.60
2018-05-26T18:08:39.382Z,60.40
2018-05-26T18:11:08.398Z,62.00
2018-05-26T18:13:36.655Z,61.80
2018-05-26T18:16:04.893Z,62.40
2018-05-26T18:18:33.327Z,63.40
2018-05-26T18:21:01.582Z,63.70
2018-05-26T18:23:29.823Z,63.20
2018-05-26T18:25:58.089Z,64.00
2018-05-26T18:28:26.323Z,64.40
2018-05-26T18:30:55.527Z,65.30
2018-05-26T18:33:23.774Z,65.20
2018-05-26T18:35:53.525Z,66.20
2018-05-26T18:38:21.774Z,66.10
2018-05-26T18:40:50.790Z,66.10
2018-05-26T18:43:19.043Z,66.10
2018-05-26T18:45:48.055Z,66.70
2018-05-26T18:48:16.311Z,66.70
2018-05-26T18:50:45.527Z,68.10
2018-05-26T18:53:13.770Z,67.20
2018-05-26T18:55:42.010Z,67.70
2018-05-26T18:58:10.259Z,67.60
2018-05-26T19:00:38.839Z,67.50
2018-05-26T19:03:07.770Z,67.60
2018-05-26T19:05:36.002Z,67.90
2018-05-26T19:08:04.254Z,68.20
2018-05-26T19:10:32.491Z,68.50
2018-05-26T19:13:00.738Z,69.00
2018-05-26T19:15:29.000Z,69.10
2018-05-26T19:17:58.098Z,69.50
2018-05-26T19:20:27.105Z,69.30
2018-05-26T19:22:55.338Z,69.30
2018-05-26T19:25:23.578Z,69.40
2018-05-26T19:27:51.827Z,68.90
2018-05-26T19:30:20.062Z,69.00
2018-05-26T19:32:48.314Z,69.30
2018-05-26T19:35:16.558Z,68.80
2018-05-26T19:37:44.808Z,68.70
2018-05-26T19:40:13.823Z,68.70
2018-05-26T19:42:42.054Z,68.70
2018-05-26T19:45:10.315Z,69.10
2018-05-26T19:47:38.592Z,69.30
2018-05-26T19:50:07.126Z,69.20
2018-05-26T19:52:35.358Z,69.40
2018-05-26T19:55:03.591Z,70.00
2018-05-26T19:57:31.849Z,70.10
2018-05-26T20:00:00.099Z,69.80
2018-05-26T20:02:28.352Z,70.00
2018-05-26T20:04:56.586Z,70.80
2018-05-26T20:07:24.822Z,70.00
2018-05-26T20:09:53.985Z,70.40
2018-05-26T20:12:22.226Z,70.50
2018-05-26T20:14:51.259Z,70.20
2018-05-26T20:17:19.555Z,70.10
2018-05-26T20:19:47.791Z,70.40
2018-05-26T20:22:16.047Z,70.60
2018-05-26T20:24:44.285Z,70.90
2018-05-26T20:27:12.527Z,71.00
2018-05-26T20:29:40.890Z,71.00
2018-05-26T20:32:09.134Z,71.20
2018-05-26T20:34:38.456Z,71.10
2018-05-26T20:37:06.694Z,70.90
2018-05-26T20:39:34.927Z,70.60
2018-05-26T20:42:03.174Z,70.90
2018-05-26T20:44:32.173Z,71.20
2018-05-26T20:47:00.426Z,71.20
2018-05-26T20:49:29.431Z,72.00
2018-05-26T20:51:58.443Z,71.30
2018-05-26T20:54:26.678Z,71.20
2018-05-26T20:56:54.924Z,71.80
2018-05-26T20:59:23.169Z,71.60
2018-05-26T21:01:51.418Z,71.40
2018-05-26T21:04:20.428Z,71.60
2018-05-26T21:06:49.484Z,71.60
2018-05-26T21:09:17.677Z,71.60
2018-05-26T21:11:46.678Z,71.40
2018-05-26T21:14:15.690Z,71.20
2018-05-26T21:16:43.930Z,71.20
2018-05-26T21:19:12.938Z,71.50
2018-05-26T21:21:41.955Z,71.80
2018-05-26T21:24:10.193Z,71.70
2018-05-26T21:26:38.446Z,71.70
2018-05-26T21:29:06.700Z,72.10
2018-05-26T21:31:34.935Z,72.50
2018-05-26T21:34:03.942Z,73.20
2018-05-26T21:36:32.194Z,73.20
2018-05-26T21:39:01.243Z,73.20
2018-05-26T21:41:29.484Z,73.10
2018-05-26T21:43:57.734Z,72.80
2018-05-26T21:46:25.986Z,73.00
2018-05-26T21:48:54.218Z,72.40
2018-05-26T21:51:22.453Z,73.20
2018-05-26T21:53:50.853Z,74.20
2018-05-26T21:56:19.949Z,72.80
2018-05-26T21:58:48.956Z,72.90
2018-05-26T22:01:17.429Z,72.90
2018-05-26T22:03:45.678Z,71.90
2018-05-26T22:06:13.910Z,72.20
2018-05-26T22:08:42.163Z,72.30
2018-05-26T22:11:10.419Z,72.30
2018-05-26T22:13:39.439Z,73.00
2018-05-26T22:16:07.683Z,72.90
2018-05-26T22:18:35.935Z,73.30
2018-05-26T22:21:04.176Z,73.70
2018-05-26T22:23:32.429Z,74.00
2018-05-26T22:26:01.440Z,73.50
2018-05-26T22:28:29.678Z,73.50
2018-05-26T22:30:58.203Z,74.40
2018-05-26T22:33:26.446Z,74.40
2018-05-26T22:35:55.450Z,74.40
2018-05-26T22:38:23.714Z,74.40
2018-05-26T22:40:52.717Z,75.00
2018-05-26T22:43:20.963Z,75.00
2018-05-26T22:45:49.219Z,74.90
2018-05-26T22:48:17.463Z,75.60
2018-05-26T22:50:45.710Z,75.70
2018-05-26T22:53:14.731Z,76.20
2018-05-26T22:55:42.974Z,76.00
2018-05-26T22:58:11.977Z,75.90
2018-05-26T23:00:40.999Z,76.30
2018-05-26T23:03:09.234Z,76.30
2018-05-26T23:05:38.262Z,76.50
2018-05-26T23:08:06.524Z,76.50
2018-05-26T23:10:35.823Z,76.90
2018-05-26T23:13:04.070Z,76.80
2018-05-26T23:15:32.310Z,77.10
2018-05-26T23:18:00.570Z,77.40
2018-05-26T23:20:28.811Z,77.20
2018-05-26T23:22:57.817Z,77.70
2018-05-26T23:25:26.189Z,77.60
2018-05-26T23:27:55.213Z,78.20
2018-05-26T23:30:23.530Z,78.20
2018-05-26T23:32:51.785Z,78.20
2018-05-26T23:35:20.034Z,78.20
2018-05-26T23:37:48.300Z,78.20
2018-05-26T23:40:16.538Z,78.10
2018-05-26T23:42:44.778Z,78.10
2018-05-26T23:45:13.036Z,78.50
2018-05-26T23:47:41.273Z,78.50
2018-05-26T23:50:10.293Z,79.00
2018-05-26T23:52:38.553Z,79.00
2018-05-26T23:55:07.576Z,78.90
2018-05-26T23:57:35.809Z,78.90
